Time;durP1;ratioP1;P1;durP2;ratioP2;P2;SDS_P1;SDS_P2;PMS_P1;PMS_P2;Temp;Humidity;BMP_temperature;BMP_pressure;BME280_temperature;BME280_humidity;BME280_pressure;Samples;Min_cycle;Max_cycle;Signal;HPM_P1;HPM_P2
2022/10/23 00:00:28;;;;;;;;;;;18.90;93.10;;;;;;5115160;28;19916;-43
2022/10/23 00:02:54;;;;;;;;;;;18.90;93.10;;;;;;5115198;28;19915;-48
2022/10/23 00:05:20;;;;;;;;;;;18.80;93.10;;;;;;5115492;28;20219;-43
2022/10/23 00:07:49;;;;;;;;;;;18.90;93.10;;;;;;5115365;28;20330;-43
2022/10/23 00:10:15;;;;;;;;;;;18.90;93.10;;;;;;5115388;28;19907;-45
2022/10/23 00:12:40;;;;;;;;;;;18.90;93.10;;;;;;5115581;28;19908;-45
2022/10/23 00:15:06;;;;;;;;;;;18.90;93.10;;;;;;5114925;28;19986;-45
2022/10/23 00:17:33;;;;;;;;;;;18.90;93.10;;;;;;5114653;28;19911;-44
2022/10/23 00:19:59;;;;;;;;;;;18.90;93.10;;;;;;5114744;28;19973;-45
2022/10/23 00:22:25;;;;;;;;;;;18.90;93.10;;;;;;5114752;28;19908;-47
2022/10/23 00:24:50;;;;;;;;;;;18.90;93.10;;;;;;5114989;28;19961;-43
2022/10/23 00:27:16;;;;;;;;;;;18.90;93.10;;;;;;5114740;28;19943;-43
2022/10/23 00:29:42;;;;;;;;;;;18.90;93.10;;;;;;5114985;28;19911;-46
2022/10/23 00:32:08;;;;;;;;;;;18.90;93.10;;;;;;5114674;28;19922;-43
2022/10/23 00:34:33;;;;;;;;;;;18.90;93.30;;;;;;5114579;28;19908;-43
2022/10/23 00:36:59;;;;;;;;;;;18.90;93.10;;;;;;5114613;28;19994;-43
2022/10/23 00:39:24;;;;;;;;;;;18.90;93.10;;;;;;5114614;28;19908;-43
2022/10/23 00:41:50;;;;;;;;;;;18.90;93.10;;;;;;5114741;28;20002;-45
2022/10/23 00:44:21;;;;;;;;;;;18.80;93.10;;;;;;5114832;28;19908;-45
2022/10/23 00:46:47;;;;;;;;;;;18.90;93.10;;;;;;5114881;28;20045;-43
2022/10/23 00:49:13;;;;;;;;;;;18.90;93.10;;;;;;5114368;28;19977;-43
2022/10/23 00:51:43;;;;;;;;;;;18.90;93.10;;;;;;5114689;28;19950;-45
2022/10/23 00:54:10;;;;;;;;;;;18.80;93.10;;;;;;5114656;28;19911;-46
2022/10/23 00:56:37;;;;;;;;;;;18.80;93.10;;;;;;5114597;28;19911;-45
2022/10/23 00:59:02;;;;;;;;;;;18.80;93.10;;;;;;5114875;28;20346;-46
2022/10/23 01:01:28;;;;;;;;;;;18.80;93.10;;;;;;5114143;28;19920;-44
2022/10/23 01:03:53;;;;;;;;;;;18.80;93.10;;;;;;5114300;28;19977;-45
2022/10/23 01:06:25;;;;;;;;;;;18.80;93.20;;;;;;5114088;28;19960;-44
2022/10/23 01:09:11;;;;;;;;;;;18.80;93.20;;;;;;5114628;28;20395;-45
2022/10/23 01:11:37;;;;;;;;;;;18.80;93.20;;;;;;5114522;28;19961;-43
2022/10/23 01:14:11;;;;;;;;;;;18.80;93.10;;;;;;5114306;28;19912;-45
2022/10/23 01:16:45;;;;;;;;;;;18.80;93.20;;;;;;5114211;28;19908;-43
2022/10/23 01:19:19;;;;;;;;;;;18.80;93.10;;;;;;5114247;28;19907;-43
2022/10/23 01:21:52;;;;;;;;;;;18.80;93.10;;;;;;5114342;28;19968;-42
2022/10/23 01:24:41;;;;;;;;;;;18.80;93.40;;;;;;5096096;28;19938;-43
2022/10/23 01:27:10;;;;;;;;;;;18.80;93.10;;;;;;5058428;28;19929;-43
2022/10/23 01:29:38;;;;;;;;;;;18.80;93.10;;;;;;5114180;28;19908;-45
2022/10/23 01:32:15;;;;;;;;;;;18.80;93.10;;;;;;5113984;28;19932;-43
2022/10/23 01:34:46;;;;;;;;;;;18.80;93.10;;;;;;5114494;28;19907;-44
2022/10/23 01:37:13;;;;;;;;;;;18.80;93.10;;;;;;5114272;28;19915;-46
2022/10/23 01:39:43;;;;;;;;;;;18.80;93.10;;;;;;5095785;28;20052;-47
2022/10/23 01:42:29;;;;;;;;;;;18.80;93.10;;;;;;5113883;28;19916;-44
2022/10/23 01:45:00;;;;;;;;;;;18.80;93.10;;;;;;5113778;28;19963;-44
2022/10/23 01:47:27;;;;;;;;;;;18.80;93.10;;;;;;5117952;28;19908;-43
2022/10/23 01:49:54;;;;;;;;;;;18.80;93.10;;;;;;5117959;28;19933;-44
2022/10/23 01:52:20;;;;;;;;;;;18.80;93.10;;;;;;5117923;28;19912;-43
2022/10/23 01:54:46;;;;;;;;;;;18.80;93.10;;;;;;5117588;28;19908;-45
2022/10/23 01:57:13;;;;;;;;;;;18.80;93.10;;;;;;5117503;28;19915;-43
2022/10/23 01:59:44;;;;;;;;;;;18.80;93.10;;;;;;5117567;28;20010;-43
2022/10/23 02:02:11;;;;;;;;;;;18.80;93.10;;;;;;5117900;28;19955;-44
2022/10/23 02:04:39;;;;;;;;;;;18.80;93.10;;;;;;5117713;28;19919;-44
2022/10/23 02:07:05;;;;;;;;;;;18.80;93.10;;;;;;5117388;28;19964;-43
2022/10/23 02:09:31;;;;;;;;;;;18.80;93.10;;;;;;5117448;28;20013;-44
2022/10/23 02:12:16;;;;;;;;;;;18.80;93.10;;;;;;5117452;28;20000;-45
2022/10/23 02:14:42;;;;;;;;;;;18.80;93.10;;;;;;5075287;28;19938;-44
2022/10/23 02:17:20;;;;;;;;;;;18.80;93.10;;;;;;5098835;28;20201;-43
2022/10/23 02:19:49;;;;;;;;;;;18.80;93.10;;;;;;5117101;28;20377;-43
2022/10/23 02:22:18;;;;;;;;;;;18.80;93.10;;;;;;5117369;28;19953;-43
2022/10/23 02:24:50;;;;;;;;;;;18.80;93.10;;;;;;5117076;28;20274;-47
2022/10/23 02:27:17;;;;;;;;;;;18.80;93.10;;;;;;5117235;28;19907;-42
2022/10/23 02:29:46;;;;;;;;;;;18.80;93.10;;;;;;5116982;28;19919;-45
2022/10/23 02:32:12;;;;;;;;;;;18.80;93.10;;;;;;5117306;28;19915;-46
2022/10/23 02:34:38;;;;;;;;;;;18.80;93.10;;;;;;5117074;28;20358;-43
2022/10/23 02:37:03;;;;;;;;;;;18.80;93.10;;;;;;5117303;28;19908;-43
2022/10/23 02:39:29;;;;;;;;;;;18.80;93.00;;;;;;5116916;28;19951;-43
2022/10/23 02:41:58;;;;;;;;;;;18.80;93.10;;;;;;5116767;28;19969;-44
2022/10/23 02:44:27;;;;;;;;;;;18.70;93.10;;;;;;5116854;28;19933;-45
2022/10/23 02:46:53;;;;;;;;;;;18.80;93.10;;;;;;5117023;28;19908;-45
2022/10/23 02:49:30;;;;;;;;;;;18.80;93.10;;;;;;5116964;28;19907;-44
2022/10/23 02:52:02;;;;;;;;;;;18.80;93.10;;;;;;5116642;28;19908;-43
2022/10/23 02:54:42;;;;;;;;;;;18.80;93.10;;;;;;5116967;28;19912;-43
2022/10/23 02:57:14;;;;;;;;;;;18.70;93.10;;;;;;5116599;28;20369;-43
2022/10/23 02:59:39;;;;;;;;;;;18.80;93.10;;;;;;5116462;28;19908;-44
2022/10/23 03:02:15;;;;;;;;;;;18.80;93.00;;;;;;5116539;28;19923;-43
2022/10/23 03:04:41;;;;;;;;;;;18.80;93.00;;;;;;5116371;28;19953;-43
2022/10/23 03:07:09;;;;;;;;;;;18.70;93.00;;;;;;5116357;28;19985;-42
2022/10/23 03:09:35;;;;;;;;;;;18.80;93.00;;;;;;5116163;28;19964;-43
2022/10/23 03:12:01;;;;;;;;;;;18.80;93.00;;;;;;5116474;28;20002;-45
2022/10/23 03:14:26;;;;;;;;;;;18.70;93.10;;;;;;5116430;28;20409;-43
2022/10/23 03:16:52;;;;;;;;;;;18.70;93.10;;;;;;5116114;28;19912;-43
2022/10/23 03:19:17;;;;;;;;;;;18.80;93.00;;;;;;5116364;28;19907;-43
2022/10/23 03:21:42;;;;;;;;;;;18.80;93.00;;;;;;5115926;28;19965;-44
2022/10/23 03:24:08;;;;;;;;;;;18.80;93.10;;;;;;5116235;28;20282;-43
2022/10/23 03:26:33;;;;;;;;;;;18.80;93.00;;;;;;5116225;28;20003;-43
2022/10/23 03:28:59;;;;;;;;;;;18.70;93.00;;;;;;5116159;28;19953;-44
2022/10/23 03:31:24;;;;;;;;;;;18.70;93.00;;;;;;5116043;28;19908;-45
2022/10/23 03:33:50;;;;;;;;;;;18.70;93.00;;;;;;5115860;28;19908;-43
2022/10/23 03:36:15;;;;;;;;;;;18.70;93.10;;;;;;5097714;28;19907;-43
2022/10/23 03:38:41;;;;;;;;;;;18.70;93.10;;;;;;5097470;28;19908;-45
2022/10/23 03:41:06;;;;;;;;;;;18.70;93.10;;;;;;5115854;28;19916;-44
2022/10/23 03:43:31;;;;;;;;;;;18.70;93.10;;;;;;5115566;28;19912;-45
2022/10/23 03:45:57;;;;;;;;;;;18.70;93.10;;;;;;5115775;28;20002;-44
2022/10/23 03:48:23;;;;;;;;;;;18.70;93.10;;;;;;5116154;28;20232;-47
2022/10/23 03:50:49;;;;;;;;;;;18.70;93.00;;;;;;5115728;28;19933;-44
2022/10/23 03:53:15;;;;;;;;;;;18.70;93.10;;;;;;5115391;28;19907;-45
2022/10/23 03:55:40;;;;;;;;;;;18.70;93.10;;;;;;5115242;28;20439;-45
2022/10/23 03:58:06;;;;;;;;;;;18.70;93.10;;;;;;5115573;28;19908;-45
2022/10/23 04:00:31;;;;;;;;;;;18.70;93.10;;;;;;5115703;28;19959;-44
2022/10/23 04:02:57;;;;;;;;;;;18.70;93.10;;;;;;5115230;28;19957;-44
2022/10/23 04:05:22;;;;;;;;;;;18.70;93.10;;;;;;5115359;28;19919;-47
2022/10/23 04:07:47;;;;;;;;;;;18.70;93.10;;;;;;5115164;28;19926;-44
2022/10/23 04:10:13;;;;;;;;;;;18.70;93.10;;;;;;5114728;28;20278;-46
2022/10/23 04:12:38;;;;;;;;;;;18.70;93.00;;;;;;5114999;28;20302;-45
2022/10/23 04:15:04;;;;;;;;;;;18.70;93.00;;;;;;5114949;28;20049;-46
2022/10/23 04:17:29;;;;;;;;;;;18.70;93.10;;;;;;5115183;28;19912;-44
2022/10/23 04:19:55;;;;;;;;;;;18.70;93.00;;;;;;5114754;28;19908;-45
2022/10/23 04:22:20;;;;;;;;;;;18.70;93.00;;;;;;5096529;28;19908;-44
2022/10/23 04:24:46;;;;;;;;;;;18.70;93.00;;;;;;5114813;28;19914;-46
2022/10/23 04:27:12;;;;;;;;;;;18.70;93.00;;;;;;5115018;28;20254;-45
2022/10/23 04:29:37;;;;;;;;;;;18.60;93.00;;;;;;5114691;28;19915;-45
2022/10/23 04:32:03;;;;;;;;;;;18.70;93.00;;;;;;5114624;28;20345;-44
2022/10/23 04:34:29;;;;;;;;;;;18.70;93.00;;;;;;5114816;28;19908;-44
2022/10/23 04:36:54;;;;;;;;;;;18.70;93.00;;;;;;5096732;28;19908;-45
2022/10/23 04:39:20;;;;;;;;;;;18.70;93.00;;;;;;5114866;28;20320;-43
2022/10/23 04:41:45;;;;;;;;;;;18.70;93.00;;;;;;5114769;28;19923;-43
2022/10/23 04:44:10;;;;;;;;;;;18.70;93.00;;;;;;5114461;28;19908;-44
2022/10/23 04:46:36;;;;;;;;;;;18.70;93.00;;;;;;5114713;28;19907;-48
2022/10/23 04:49:01;;;;;;;;;;;18.70;93.00;;;;;;5114804;28;20279;-46
2022/10/23 04:51:27;;;;;;;;;;;18.70;93.00;;;;;;5114506;28;19908;-45
2022/10/23 04:53:52;;;;;;;;;;;18.70;93.00;;;;;;5114355;28;19907;-46
2022/10/23 04:56:18;;;;;;;;;;;18.70;93.00;;;;;;5114571;28;19976;-43
2022/10/23 04:58:43;;;;;;;;;;;18.60;93.00;;;;;;5114298;28;20032;-43
2022/10/23 05:01:09;;;;;;;;;;;18.70;93.00;;;;;;5114494;28;19916;-43
2022/10/23 05:03:35;;;;;;;;;;;18.60;93.00;;;;;;5114486;28;20003;-44
2022/10/23 05:06:01;;;;;;;;;;;18.60;93.00;;;;;;5114150;28;19908;-44
2022/10/23 05:08:26;;;;;;;;;;;18.60;93.00;;;;;;5114560;28;19919;-44
2022/10/23 05:10:52;;;;;;;;;;;18.60;93.00;;;;;;5114497;28;19912;-44
2022/10/23 05:13:18;;;;;;;;;;;18.60;93.00;;;;;;5113964;28;19953;-44
2022/10/23 05:15:48;;;;;;;;;;;18.60;93.00;;;;;;5114091;28;19912;-44
2022/10/23 05:18:20;;;;;;;;;;;18.60;93.00;;;;;;5114384;28;19923;-43
2022/10/23 05:20:46;;;;;;;;;;;18.70;93.00;;;;;;5117039;28;19940;-46
2022/10/23 05:23:13;;;;;;;;;;;18.60;93.00;;;;;;5118205;28;19912;-43
2022/10/23 05:25:39;;;;;;;;;;;18.70;93.00;;;;;;5118562;28;19908;-43
2022/10/23 05:28:04;;;;;;;;;;;18.60;93.00;;;;;;5118225;28;19914;-43
2022/10/23 05:30:31;;;;;;;;;;;18.60;93.00;;;;;;5118445;28;19919;-48
2022/10/23 05:32:58;;;;;;;;;;;18.60;93.00;;;;;;5118342;28;19914;-44
2022/10/23 05:35:23;;;;;;;;;;;18.70;93.00;;;;;;5118096;28;20258;-45
2022/10/23 05:37:50;;;;;;;;;;;18.60;93.00;;;;;;5117912;28;19908;-45
2022/10/23 05:40:16;;;;;;;;;;;18.60;93.00;;;;;;5118149;28;19923;-47
2022/10/23 05:42:41;;;;;;;;;;;18.70;93.00;;;;;;5118249;28;19908;-44
2022/10/23 05:45:07;;;;;;;;;;;18.70;93.00;;;;;;5118207;28;19908;-43
2022/10/23 05:47:33;;;;;;;;;;;18.70;93.00;;;;;;5117938;28;19918;-46
2022/10/23 05:49:58;;;;;;;;;;;18.70;93.00;;;;;;5117786;28;19907;-43
2022/10/23 05:52:24;;;;;;;;;;;18.70;93.00;;;;;;5118133;28;19907;-44
2022/10/23 05:54:49;;;;;;;;;;;18.70;92.90;;;;;;5117618;28;19908;-43
2022/10/23 05:57:15;;;;;;;;;;;18.70;93.00;;;;;;5117900;28;19908;-45
2022/10/23 05:59:40;;;;;;;;;;;18.70;92.90;;;;;;5117610;28;19907;-48
2022/10/23 06:02:06;;;;;;;;;;;18.70;92.90;;;;;;5117813;28;19942;-43
2022/10/23 06:04:32;;;;;;;;;;;18.70;92.90;;;;;;5117834;28;20428;-44
2022/10/23 06:06:58;;;;;;;;;;;18.70;92.90;;;;;;5117693;28;19920;-44
2022/10/23 06:09:23;;;;;;;;;;;18.70;92.90;;;;;;5117567;28;19930;-43
2022/10/23 06:11:49;;;;;;;;;;;18.70;92.90;;;;;;5117473;28;19950;-45
2022/10/23 06:14:14;;;;;;;;;;;18.70;92.90;;;;;;5117492;28;20415;-45
2022/10/23 06:16:40;;;;;;;;;;;18.70;92.90;;;;;;5117795;28;19955;-44
2022/10/23 06:19:08;;;;;;;;;;;18.70;92.90;;;;;;5117384;28;19908;-44
2022/10/23 06:21:35;;;;;;;;;;;18.70;92.90;;;;;;5116900;28;19970;-44
2022/10/23 06:24:00;;;;;;;;;;;18.70;92.90;;;;;;5117310;28;20342;-44
2022/10/23 06:26:26;;;;;;;;;;;18.70;92.90;;;;;;5117001;28;19962;-47
2022/10/23 06:28:51;;;;;;;;;;;18.60;92.90;;;;;;5116924;28;20444;-45
2022/10/23 06:31:18;;;;;;;;;;;18.60;92.90;;;;;;5116436;28;19943;-43
2022/10/23 06:33:44;;;;;;;;;;;18.70;92.90;;;;;;5116578;28;19908;-43
2022/10/23 06:36:09;;;;;;;;;;;18.70;92.90;;;;;;5098710;28;19952;-47
2022/10/23 06:38:39;;;;;;;;;;;18.70;92.90;;;;;;5117155;28;20251;-44
2022/10/23 06:41:05;;;;;;;;;;;18.70;92.90;;;;;;5098576;28;19919;-45
2022/10/23 06:43:31;;;;;;;;;;;18.70;92.80;;;;;;5116624;28;20408;-44
2022/10/23 06:45:59;;;;;;;;;;;18.70;92.80;;;;;;5116669;28;19912;-45
2022/10/23 06:48:24;;;;;;;;;;;18.70;92.80;;;;;;5116732;28;19953;-44
2022/10/23 06:50:50;;;;;;;;;;;18.70;92.80;;;;;;5116778;28;19912;-46
2022/10/23 06:53:15;;;;;;;;;;;18.70;92.80;;;;;;5116497;28;19915;-43
2022/10/23 06:55:41;;;;;;;;;;;18.80;92.80;;;;;;5116904;28;19923;-46
2022/10/23 06:58:09;;;;;;;;;;;18.80;92.80;;;;;;5116337;28;20342;-44
2022/10/23 07:00:37;;;;;;;;;;;18.80;92.70;;;;;;5116186;28;19916;-46
2022/10/23 07:03:03;;;;;;;;;;;18.80;92.70;;;;;;5116979;28;19908;-45
2022/10/23 07:05:29;;;;;;;;;;;18.80;92.70;;;;;;5098552;28;20290;-45
2022/10/23 07:07:54;;;;;;;;;;;18.80;92.70;;;;;;5116125;28;19962;-43
2022/10/23 07:10:20;;;;;;;;;;;18.80;92.70;;;;;;5097957;28;20343;-46
2022/10/23 07:12:47;;;;;;;;;;;18.80;92.70;;;;;;5115982;28;19911;-45
2022/10/23 07:15:13;;;;;;;;;;;18.80;92.60;;;;;;5115875;28;19912;-43
2022/10/23 07:17:39;;;;;;;;;;;18.80;92.60;;;;;;5115765;28;20357;-44
2022/10/23 07:20:05;;;;;;;;;;;18.80;92.60;;;;;;5115676;28;20007;-47
2022/10/23 07:22:30;;;;;;;;;;;18.80;92.60;;;;;;5115941;28;19912;-45
2022/10/23 07:24:55;;;;;;;;;;;18.80;92.60;;;;;;5116364;28;20354;-48
2022/10/23 07:27:21;;;;;;;;;;;18.80;92.60;;;;;;5097241;28;19950;-44
2022/10/23 07:29:49;;;;;;;;;;;18.90;92.60;;;;;;5115955;28;19907;-47
2022/10/23 07:32:14;;;;;;;;;;;18.80;92.60;;;;;;5115048;28;19907;-44
2022/10/23 07:34:40;;;;;;;;;;;18.80;92.60;;;;;;5115520;28;20026;-43
2022/10/23 07:37:05;;;;;;;;;;;18.80;92.60;;;;;;5115713;28;20338;-44
2022/10/23 07:39:30;;;;;;;;;;;18.80;92.60;;;;;;5097345;28;19908;-43
2022/10/23 07:41:56;;;;;;;;;;;18.90;92.60;;;;;;5115389;28;20006;-44
2022/10/23 07:44:21;;;;;;;;;;;18.80;92.60;;;;;;5114644;28;20351;-45
2022/10/23 07:46:47;;;;;;;;;;;18.80;92.60;;;;;;5115472;28;20002;-45
2022/10/23 07:49:12;;;;;;;;;;;18.90;92.60;;;;;;5115514;28;19978;-44
2022/10/23 07:51:38;;;;;;;;;;;18.80;92.60;;;;;;5115234;28;19915;-43
2022/10/23 07:54:03;;;;;;;;;;;18.80;92.60;;;;;;5115372;28;20278;-45
2022/10/23 07:56:29;;;;;;;;;;;18.80;92.60;;;;;;5097301;28;19908;-46
2022/10/23 07:58:54;;;;;;;;;;;18.80;92.60;;;;;;5115255;28;19908;-43
2022/10/23 08:01:29;;;;;;;;;;;18.80;92.60;;;;;;5096919;28;20377;-44
2022/10/23 08:03:54;;;;;;;;;;;18.80;92.60;;;;;;5115291;28;19915;-45
2022/10/23 08:06:20;;;;;;;;;;;18.80;92.60;;;;;;5096473;28;19908;-43
2022/10/23 08:08:45;;;;;;;;;;;18.80;92.60;;;;;;5114899;28;19938;-48
2022/10/23 08:11:14;;;;;;;;;;;18.80;92.60;;;;;;5115097;28;20319;-46
2022/10/23 08:13:40;;;;;;;;;;;18.80;92.60;;;;;;5115224;28;20021;-49
2022/10/23 08:16:06;;;;;;;;;;;18.80;92.60;;;;;;5115093;28;19978;-43
2022/10/23 08:18:32;;;;;;;;;;;18.80;92.60;;;;;;5114711;28;19907;-45
2022/10/23 08:21:01;;;;;;;;;;;18.80;92.60;;;;;;5114450;28;19961;-43
2022/10/23 08:23:27;;;;;;;;;;;18.90;92.60;;;;;;5115033;28;19908;-43
2022/10/23 08:25:59;;;;;;;;;;;18.80;92.60;;;;;;5114952;28;19911;-47
2022/10/23 08:28:25;;;;;;;;;;;18.90;92.60;;;;;;5114551;28;19908;-44
2022/10/23 08:30:51;;;;;;;;;;;18.90;92.60;;;;;;5096443;28;19926;-45
2022/10/23 08:33:16;;;;;;;;;;;18.90;92.50;;;;;;5114542;28;19908;-46
2022/10/23 08:35:42;;;;;;;;;;;18.90;92.50;;;;;;5114730;28;20010;-44
2022/10/23 08:38:07;;;;;;;;;;;18.90;92.50;;;;;;5096283;28;20346;-43
2022/10/23 08:40:33;;;;;;;;;;;18.90;92.70;;;;;;5114193;28;19959;-44
2022/10/23 08:43:04;;;;;;;;;;;18.90;92.40;;;;;;5114540;28;19908;-45
2022/10/23 08:45:42;;;;;;;;;;;18.90;92.40;;;;;;5095895;28;19912;-47
2022/10/23 08:48:14;;;;;;;;;;;19.00;92.40;;;;;;5114622;28;19999;-43
2022/10/23 08:50:48;;;;;;;;;;;19.00;92.40;;;;;;5114932;28;19908;-48
2022/10/23 08:53:34;;;;;;;;;;;19.00;92.40;;;;;;5096420;28;19908;-45
2022/10/23 08:56:01;;;;;;;;;;;19.00;92.40;;;;;;5113831;28;20426;-44
2022/10/23 08:58:33;;;;;;;;;;;19.00;92.40;;;;;;5114520;28;19908;-49
2022/10/23 09:00:58;;;;;;;;;;;19.00;92.40;;;;;;5114343;28;19939;-45
2022/10/23 09:03:24;;;;;;;;;;;19.00;92.40;;;;;;5114132;28;20358;-50
2022/10/23 09:05:56;;;;;;;;;;;19.00;92.40;;;;;;5114477;28;19915;-46
2022/10/23 09:08:41;;;;;;;;;;;19.00;92.40;;;;;;5114531;28;19924;-49
2022/10/23 09:11:10;;;;;;;;;;;19.00;92.40;;;;;;5096235;28;19908;-44
2022/10/23 09:13:54;;;;;;;;;;;19.00;92.40;;;;;;5114139;28;19969;-44
2022/10/23 09:16:36;;;;;;;;;;;19.00;92.40;;;;;;5095749;28;20334;-46
2022/10/23 09:19:07;;;;;;;;;;;19.00;92.40;;;;;;5113782;28;19908;-47
2022/10/23 09:21:34;;;;;;;;;;;19.00;92.40;;;;;;5114187;28;20358;-44
2022/10/23 09:24:00;;;;;;;;;;;18.90;92.40;;;;;;5113934;28;19908;-44
2022/10/23 09:26:25;;;;;;;;;;;19.00;92.40;;;;;;5114156;28;19931;-43
2022/10/23 09:28:55;;;;;;;;;;;19.00;92.40;;;;;;5113944;28;20334;-44
2022/10/23 09:31:20;;;;;;;;;;;19.00;92.40;;;;;;5095721;28;19999;-45
2022/10/23 09:33:56;;;;;;;;;;;19.00;92.40;;;;;;5113877;28;19907;-43
2022/10/23 09:36:27;;;;;;;;;;;18.90;92.40;;;;;;5095281;28;20358;-44
2022/10/23 09:38:54;;;;;;;;;;;18.90;92.40;;;;;;5113933;28;19955;-43
2022/10/23 09:41:30;;;;;;;;;;;18.90;92.40;;;;;;5113505;28;19923;-45
2022/10/23 09:44:17;;;;;;;;;;;18.90;92.40;;;;;;5095603;28;20385;-44
2022/10/23 09:46:44;;;;;;;;;;;19.00;92.40;;;;;;5113713;28;19954;-45
2022/10/23 09:49:20;;;;;;;;;;;18.90;92.40;;;;;;5113527;28;20378;-46
2022/10/23 09:51:51;;;;;;;;;;;18.90;92.40;;;;;;5113830;28;19915;-44
2022/10/23 09:54:18;;;;;;;;;;;18.90;92.40;;;;;;5113502;28;20003;-46
2022/10/23 09:56:46;;;;;;;;;;;18.90;92.50;;;;;;5113758;28;19908;-46
2022/10/23 09:59:12;;;;;;;;;;;18.90;92.40;;;;;;5113579;28;20280;-44
2022/10/23 10:01:47;;;;;;;;;;;18.90;92.50;;;;;;5113865;28;19923;-43
2022/10/23 10:04:13;;;;;;;;;;;18.90;92.50;;;;;;5113515;28;19973;-46
2022/10/23 10:06:39;;;;;;;;;;;18.90;92.50;;;;;;5114027;28;20378;-45
2022/10/23 10:09:07;;;;;;;;;;;18.90;92.50;;;;;;5117570;28;20003;-45
2022/10/23 10:11:36;;;;;;;;;;;18.90;92.50;;;;;;5117339;28;20346;-44
2022/10/23 10:14:09;;;;;;;;;;;18.90;92.50;;;;;;5117191;28;19961;-46
2022/10/23 10:16:43;;;;;;;;;;;18.90;92.50;;;;;;5117383;28;19953;-44
2022/10/23 10:19:18;;;;;;;;;;;18.90;92.50;;;;;;5117260;28;19954;-44
2022/10/23 10:22:03;;;;;;;;;;;18.90;92.50;;;;;;5117165;28;20011;-44
2022/10/23 10:24:32;;;;;;;;;;;18.90;92.50;;;;;;5117113;28;19970;-44
2022/10/23 10:27:20;;;;;;;;;;;18.90;92.50;;;;;;5116721;28;19908;-45
2022/10/23 10:29:58;;;;;;;;;;;18.90;92.50;;;;;;5116704;28;20002;-47
2022/10/23 10:32:43;;;;;;;;;;;18.90;92.50;;;;;;5098714;28;19908;-44
2022/10/23 10:35:15;;;;;;;;;;;18.90;92.50;;;;;;5115828;28;19908;-43
2022/10/23 10:37:46;;;;;;;;;;;18.90;92.50;;;;;;5116481;28;19915;-44
2022/10/23 10:40:35;;;;;;;;;;;18.90;92.50;;;;;;5098463;28;19907;-47
2022/10/23 10:43:03;;;;;;;;;;;18.90;92.50;;;;;;5105685;28;19933;-44
2022/10/23 10:45:29;;;;;;;;;;;18.90;92.50;;;;;;5116850;28;19908;-46
2022/10/23 10:48:19;;;;;;;;;;;18.90;92.50;;;;;;5098218;28;19934;-45
2022/10/23 10:50:47;;;;;;;;;;;18.90;92.50;;;;;;5116410;28;19951;-46
2022/10/23 10:53:18;;;;;;;;;;;18.90;92.50;;;;;;5116208;28;20332;-44
2022/10/23 10:55:45;;;;;;;;;;;18.90;92.50;;;;;;5116388;28;19908;-43
2022/10/23 10:58:22;;;;;;;;;;;18.90;92.60;;;;;;5116030;28;20328;-44
2022/10/23 11:00:51;;;;;;;;;;;18.90;92.60;;;;;;5116445;28;19916;-45
2022/10/23 11:03:26;;;;;;;;;;;18.90;92.60;;;;;;5116365;28;20270;-44
2022/10/23 11:05:52;;;;;;;;;;;18.90;92.60;;;;;;5116334;28;19911;-44
2022/10/23 11:08:21;;;;;;;;;;;18.90;92.60;;;;;;5116428;28;19956;-47
2022/10/23 11:10:52;;;;;;;;;;;18.90;92.60;;;;;;5097667;28;19908;-44
2022/10/23 11:13:25;;;;;;;;;;;18.90;92.60;;;;;;5116132;28;19931;-45
2022/10/23 11:15:51;;;;;;;;;;;18.90;92.60;;;;;;5116143;28;19911;-48
2022/10/23 11:18:23;;;;;;;;;;;18.90;92.60;;;;;;5115742;28;19908;-43
2022/10/23 11:20:52;;;;;;;;;;;18.90;92.60;;;;;;5116108;28;19920;-45
2022/10/23 11:23:36;;;;;;;;;;;18.90;92.60;;;;;;5116104;28;19908;-45
2022/10/23 11:26:01;;;;;;;;;;;18.90;92.60;;;;;;5115796;28;20211;-48
2022/10/23 11:28:35;;;;;;;;;;;18.90;92.60;;;;;;5115689;28;19915;-47
2022/10/23 11:31:07;;;;;;;;;;;18.90;92.60;;;;;;5115738;28;19978;-45
2022/10/23 11:33:56;;;;;;;;;;;18.90;92.60;;;;;;5115653;28;20432;-48
2022/10/23 11:36:41;;;;;;;;;;;18.90;92.60;;;;;;5115179;28;20501;-44
2022/10/23 11:39:14;;;;;;;;;;;18.90;92.60;;;;;;5115532;28;19911;-43
2022/10/23 11:41:46;;;;;;;;;;;18.90;92.60;;;;;;5115750;28;20014;-45
2022/10/23 11:44:23;;;;;;;;;;;18.90;92.60;;;;;;5115659;28;19955;-44
2022/10/23 11:46:58;;;;;;;;;;;18.90;92.60;;;;;;5115378;28;19908;-43
2022/10/23 11:49:23;;;;;;;;;;;18.90;92.60;;;;;;5115403;28;20294;-44
2022/10/23 11:51:58;;;;;;;;;;;18.90;92.60;;;;;;5115508;28;19947;-47
2022/10/23 11:54:25;;;;;;;;;;;18.90;92.60;;;;;;5115695;28;19933;-47
2022/10/23 11:56:54;;;;;;;;;;;18.90;92.60;;;;;;5115322;28;19915;-46
2022/10/23 11:59:30;;;;;;;;;;;18.80;92.60;;;;;;5097275;28;19958;-44
2022/10/23 12:01:58;;;;;;;;;;;18.90;92.60;;;;;;5115313;28;19916;-49
2022/10/23 12:04:26;;;;;;;;;;;18.90;92.60;;;;;;5114978;28;19908;-47
2022/10/23 12:06:58;;;;;;;;;;;18.90;92.60;;;;;;5096864;28;20411;-47
2022/10/23 12:09:34;;;;;;;;;;;18.90;92.60;;;;;;5114999;28;19990;-43
2022/10/23 12:12:13;;;;;;;;;;;18.90;92.60;;;;;;5096666;28;19908;-45
2022/10/23 12:14:43;;;;;;;;;;;18.90;92.60;;;;;;5114733;28;20282;-46
2022/10/23 12:17:28;;;;;;;;;;;18.90;92.60;;;;;;5114858;28;19949;-45
2022/10/23 12:20:01;;;;;;;;;;;18.90;92.60;;;;;;5115224;28;19933;-46
2022/10/23 12:22:33;;;;;;;;;;;18.90;92.60;;;;;;5114817;28;19968;-44
2022/10/23 12:25:13;;;;;;;;;;;18.90;92.60;;;;;;5114837;28;19961;-44
2022/10/23 12:27:51;;;;;;;;;;;18.90;92.60;;;;;;5114894;28;19907;-46
2022/10/23 12:30:26;;;;;;;;;;;18.90;92.60;;;;;;5114359;28;19908;-45
2022/10/23 12:33:01;;;;;;;;;;;18.90;92.60;;;;;;5114564;28;20282;-48
2022/10/23 12:35:32;;;;;;;;;;;18.90;92.60;;;;;;5114434;28;19933;-45
2022/10/23 12:38:03;;;;;;;;;;;18.80;92.60;;;;;;5114648;28;19908;-47
2022/10/23 12:40:31;;;;;;;;;;;18.90;92.60;;;;;;5114569;28;19916;-43
2022/10/23 12:42:58;;;;;;;;;;;18.90;92.60;;;;;;5114256;28;20278;-44
2022/10/23 12:45:25;;;;;;;;;;;18.80;92.60;;;;;;5096304;28;19914;-48
2022/10/23 12:47:51;;;;;;;;;;;18.90;92.60;;;;;;5114527;28;19961;-44
2022/10/23 12:50:17;;;;;;;;;;;18.90;92.60;;;;;;5114694;28;19911;-44
2022/10/23 12:52:49;;;;;;;;;;;18.80;92.60;;;;;;5114386;28;19916;-48
2022/10/23 12:55:15;;;;;;;;;;;18.90;92.60;;;;;;5114508;28;20358;-46
2022/10/23 12:57:40;;;;;;;;;;;18.90;92.60;;;;;;5113847;28;19930;-46
2022/10/23 13:00:09;;;;;;;;;;;18.80;92.60;;;;;;5114373;28;19990;-47
2022/10/23 13:02:35;;;;;;;;;;;18.90;92.60;;;;;;5113941;28;20330;-44
2022/10/23 13:05:04;;;;;;;;;;;18.90;92.60;;;;;;5114233;28;19908;-46
2022/10/23 13:07:32;;;;;;;;;;;18.80;92.60;;;;;;5113762;28;19951;-43
2022/10/23 13:09:58;;;;;;;;;;;18.80;92.60;;;;;;5096035;28;19908;-43
2022/10/23 13:12:26;;;;;;;;;;;18.80;92.60;;;;;;5114083;28;19908;-45
2022/10/23 13:14:54;;;;;;;;;;;18.90;92.60;;;;;;5113993;28;20358;-43
2022/10/23 13:17:20;;;;;;;;;;;18.80;92.60;;;;;;5114050;28;19961;-47
2022/10/23 13:19:45;;;;;;;;;;;18.80;92.60;;;;;;5113852;28;19912;-42
2022/10/23 13:22:20;;;;;;;;;;;18.80;92.60;;;;;;5114107;28;19969;-44
2022/10/23 13:24:46;;;;;;;;;;;18.80;92.60;;;;;;5114327;28;19952;-46
2022/10/23 13:27:31;;;;;;;;;;;18.80;92.60;;;;;;5114541;28;20351;-47
2022/10/23 13:29:57;;;;;;;;;;;18.80;92.60;;;;;;5114034;28;19908;-46
2022/10/23 13:32:23;;;;;;;;;;;18.80;92.60;;;;;;5114015;28;20018;-45
2022/10/23 13:34:57;;;;;;;;;;;18.80;92.60;;;;;;5113907;28;20335;-43
2022/10/23 13:37:29;;;;;;;;;;;18.80;92.60;;;;;;5113870;28;20282;-43
2022/10/23 13:40:02;;;;;;;;;;;18.80;92.60;;;;;;5113814;28;19991;-42
2022/10/23 13:42:27;;;;;;;;;;;18.80;92.60;;;;;;5115877;28;19922;-43
2022/10/23 13:44:53;;;;;;;;;;;18.80;92.60;;;;;;5118054;28;19908;-43
2022/10/23 13:47:19;;;;;;;;;;;18.80;92.60;;;;;;5117553;28;20278;-44
2022/10/23 13:49:44;;;;;;;;;;;18.80;92.60;;;;;;5118280;28;19915;-42
2022/10/23 13:52:11;;;;;;;;;;;18.80;92.60;;;;;;5117717;28;20262;-45
2022/10/23 13:54:36;;;;;;;;;;;18.80;92.60;;;;;;5117433;28;19991;-43
2022/10/23 13:57:02;;;;;;;;;;;18.80;92.60;;;;;;5117457;28;19969;-44
2022/10/23 13:59:27;;;;;;;;;;;18.80;92.60;;;;;;5099561;28;19911;-45
2022/10/23 14:01:53;;;;;;;;;;;18.80;92.60;;;;;;5117516;28;19937;-43
2022/10/23 14:04:19;;;;;;;;;;;18.80;92.60;;;;;;5117621;28;19908;-45
2022/10/23 14:06:44;;;;;;;;;;;18.80;92.60;;;;;;5117256;28;19920;-45
2022/10/23 14:09:11;;;;;;;;;;;18.80;92.60;;;;;;5117531;28;19908;-45
2022/10/23 14:11:37;;;;;;;;;;;18.80;92.60;;;;;;5099461;28;20259;-44
2022/10/23 14:14:02;;;;;;;;;;;18.80;92.60;;;;;;5117301;28;19934;-43
2022/10/23 14:16:28;;;;;;;;;;;18.80;92.60;;;;;;5116960;28;20270;-43
2022/10/23 14:18:54;;;;;;;;;;;18.80;92.60;;;;;;5117198;28;20048;-48
2022/10/23 14:21:21;;;;;;;;;;;18.80;92.60;;;;;;5116853;28;19919;-45
2022/10/23 14:23:47;;;;;;;;;;;18.80;92.60;;;;;;5116753;28;20267;-47